• Join FlightAware (Why Join?)
  • Login
  • US Flag 
04:31PM EST


 

Airport Tracker/Info


-or-


 

Live Flight TrackerFlight Track Log ✈ FDX1482 ✈ 07-May-2013 ✈ KMEM - KBWI

Flight Track Log - Related Links

Times and Time Zones

All times are in EDT time to prevent confusion due to time zone crossing. See the FDX1482 flight status page for this flight to view local times or setup timezone preferences in your user account.

Time Position Orientation Groundspeed Altitude Reporting Facility
EDT Latitude Longitude Course Direction KTS MPH feet Rate Location/Type
04:35AM 35.0167 -89.9667 73° East 173 199 1,400  Level KMEM
04:36AM 34.9833 -89.9500 158° South 200 230 2,400 2,761 Climbing KMEM
04:37AM 35.0000 -89.8500 78° East 261 300 6,600 3,582 Climbing KMEM
04:38AM 35.0333 -89.7667 64° Northeast 273 314 10,400 3,743 Climbing KMEM
04:39AM 35.0578 -89.7053 64° Northeast 286 329 12,900 3,030 Climbing Memphis Center
04:40AM 35.0864 -89.6161 69° East 345 397 15,500 1,900 Climbing Memphis Center
04:41AM 35.2100 -89.2435 73° East  Level FlightAware Approximate
04:41AM 35.1272 -89.4836 69° East 386 444 16,700  Level Memphis Center
04:42AM 35.1744 -89.3561 66° East 393 452 20,000 2,900 Climbing Memphis Center
04:43AM 35.2233 -89.2261 65° Northeast 409 471 22,500 2,500 Climbing Memphis Center
04:44AM 35.2761 -89.0853 65° Northeast 434 499 25,000 2,250 Climbing Memphis Center
04:45AM 35.3289 -88.9447 65° Northeast 451 519 27,000 2,150 Climbing Memphis Center
04:46AM 35.3814 -88.7958 67° East 465 535 29,300 2,400 Climbing Memphis Center
04:47AM 35.4294 -88.6497 68° East 465 535 31,800 2,100 Climbing Memphis Center
04:48AM 35.4836 -88.5033 66° East 465 535 33,500 275 Climbing Memphis Center
04:53AM 35.7460 -87.7570 66° East 35,000 141 Climbing FlightAware
04:53AM 35.7540 -87.7350 66° East 35,000  Level FlightAware
04:54AM 35.7920 -87.6260 67° East 35,000  Level FlightAware
04:55AM 35.8300 -87.5150 67° East 35,000  Level FlightAware
04:56AM 35.8630 -87.4200 67° East 35,000  Level FlightAware
04:56AM 35.8990 -87.3150 67° East 35,000  Level FlightAware
04:57AM 35.9310 -87.2210 67° East 35,000  Level FlightAware
04:58AM 35.9670 -87.1140 67° East 35,000  Level FlightAware
04:58AM 35.9902 -87.0454 67° East 35,000  Level FlightAware ADS-B
04:59AM 36.0137 -86.9758 67° East 441 507 35,000  Level FlightAware ADS-B
04:59AM 36.0458 -86.8811 67° East 445 512 35,000  Level FlightAware ADS-B
05:00AM 36.0769 -86.7887 67° East 435 501 35,000  Level FlightAware ADS-B
05:01AM 36.1013 -86.7161 67° East 437 503 35,000  Level FlightAware ADS-B
05:01AM 36.1270 -86.6390 68° East 440 506 35,000  Level FlightAware ADS-B
05:02AM 36.1508 -86.5676 68° East 440 506 35,000  Level FlightAware ADS-B
05:02AM 36.1742 -86.4972 68° East 428 493 35,000  Level FlightAware ADS-B
05:03AM 36.1975 -86.4269 68° East 431 496 35,000  Level FlightAware ADS-B
05:03AM 36.2279 -86.3355 68° East 437 503 35,000  Level FlightAware ADS-B
05:04AM 36.2549 -86.2542 68° East 432 497 35,000  Level FlightAware ADS-B
05:04AM 36.2822 -86.1706 68° East 442 509 35,000  Level FlightAware ADS-B
05:05AM 36.3052 -86.1009 68° East 432 497 35,000  Level FlightAware ADS-B
05:05AM 36.3283 -86.0297 68° East 444 511 35,000  Level FlightAware ADS-B
05:07AM 36.3900 -85.8400 68° East 35,000  Level FlightAware
05:07AM 36.4051 -85.7943 68° East 35,000  Level FlightAware ADS-B
05:08AM 36.4288 -85.7215 68° East 446 513 35,000  Level FlightAware ADS-B
05:08AM 36.4531 -85.6472 68° East 451 519 35,000  Level FlightAware ADS-B
05:09AM 36.4787 -85.5675 68° East 453 521 35,000  Level FlightAware ADS-B
05:09AM 36.5021 -85.4946 68° East 457 526 35,000  Level FlightAware ADS-B
05:10AM 36.5256 -85.4206 68° East 464 534 35,000  Level FlightAware ADS-B
05:10AM 36.5490 -85.3478 68° East 438 504 35,000  Level FlightAware ADS-B
05:11AM 36.5836 -85.2390 68° East 454 522 35,000  Level FlightAware ADS-B
05:12AM 36.6078 -85.1628 68° East 448 516 35,000  Level FlightAware ADS-B
05:12AM 36.6420 -85.0550 68° East 35,000  Level FlightAware
05:13AM 36.6607 -84.9966 68° East 452 520 35,000  Level FlightAware ADS-B
05:13AM 36.6873 -84.9121 69° East 452 520 35,000  Level FlightAware ADS-B
05:14AM 36.7196 -84.8093 69° East 448 516 35,000  Level FlightAware ADS-B
05:14AM 36.7428 -84.7346 69° East 442 509 35,000  Level FlightAware ADS-B
05:15AM 36.7675 -84.6559 69° East 446 513 35,000  Level FlightAware ADS-B
05:16AM 36.7947 -84.5681 69° East 460 529 35,000  Level FlightAware ADS-B
05:16AM 36.8176 -84.4946 69° East 452 520 35,000  Level FlightAware ADS-B
05:17AM 36.8404 -84.4208 69° East 451 519 35,000  Level FlightAware ADS-B
05:17AM 36.8643 -84.3436 69° East 452 520 35,000  Level FlightAware ADS-B
05:18AM 36.8869 -84.2703 69° East 429 494 35,000  Level FlightAware ADS-B
05:18AM 36.9098 -84.1970 69° East 453 521 35,000  Level FlightAware ADS-B
05:19AM 36.9318 -84.1251 69° East 445 512 35,000  Level FlightAware ADS-B
05:19AM 36.9541 -84.0518 69° East 432 497 35,000  Level FlightAware ADS-B
05:20AM 36.9774 -83.9761 69° East 445 512 35,000  Level FlightAware ADS-B
05:20AM 37.0028 -83.8923 69° East 451 519 35,000  Level FlightAware ADS-B
05:21AM 37.0277 -83.8104 69° East 451 519 35,000  Level FlightAware ADS-B
05:21AM 37.0500 -83.7369 69° East 462 532 35,000  Level FlightAware ADS-B
05:22AM 37.0732 -83.6593 69° East 453 521 35,000  Level FlightAware ADS-B
05:22AM 37.0962 -83.5828 69° East 456 525 35,000  Level FlightAware ADS-B
05:23AM 37.1228 -83.4944 69° East 446 513 35,000  Level FlightAware ADS-B
05:24AM 37.1456 -83.4185 69° East 472 543 35,000  Level FlightAware ADS-B
05:24AM 37.1683 -83.3425 69° East 471 542 35,000  Level FlightAware ADS-B
05:25AM 37.1947 -83.2531 70° East 451 519 35,000  Level FlightAware ADS-B
05:25AM 37.2171 -83.1775 70° East 445 512 35,000  Level FlightAware ADS-B
05:26AM 37.2394 -83.1021 70° East 461 531 35,000  Level FlightAware ADS-B
05:26AM 37.2617 -83.0270 70° East 465 535 35,000  Level FlightAware ADS-B
05:27AM 37.2902 -82.9292 70° East 436 502 35,000  Level FlightAware ADS-B
05:28AM 37.3257 -82.8081 70° East 446 513 35,000  Level FlightAware ADS-B
05:28AM 37.3602 -82.6897 70° East 444 511 35,000  Level FlightAware ADS-B
05:31AM 37.4840 -82.2617 70° East 430 495 35,000  Level FlightAware ADS-B
05:32AM 37.5048 -82.1897 70° East 436 502 35,000  Level FlightAware ADS-B
05:32AM 37.5255 -82.1165 70° East 444 511 35,000  Level FlightAware ADS-B
05:33AM 37.5466 -82.0414 70° East 438 504 35,000  Level FlightAware ADS-B
05:33AM 37.5683 -81.9651 70° East 451 519 35,000  Level FlightAware ADS-B
05:34AM 37.5901 -81.8876 70° East 449 517 35,000  Level FlightAware ADS-B
05:35AM 37.6107 -81.8150 70° East 449 517 35,000  Level FlightAware ADS-B
05:35AM 37.6316 -81.7402 71° East 440 506 35,000  Level FlightAware ADS-B
05:36AM 37.6524 -81.6663 70° East 461 531 35,000  Level FlightAware ADS-B
05:36AM 37.6730 -81.5927 71° East 442 509 35,000  Level FlightAware ADS-B
05:37AM 37.6931 -81.5203 71° East 427 491 35,000  Level FlightAware ADS-B
05:37AM 37.7133 -81.4471 71° East 417 480 35,000  Level FlightAware ADS-B
05:38AM 37.7336 -81.3733 71° East 429 494 35,000  Level FlightAware ADS-B
05:38AM 37.7598 -81.2787 71° East 440 506 35,000  Level FlightAware ADS-B
05:39AM 37.7930 -81.1600 70° East 35,000  Level FlightAware
05:40AM 37.8192 -81.0635 71° East 35,000  Level FlightAware ADS-B
05:40AM 37.8390 -80.9912 71° East 423 487 35,000  Level FlightAware ADS-B
05:41AM 37.8772 -80.8503 71° East 437 503 35,000  Level FlightAware ADS-B
05:42AM 37.8972 -80.7768 71° East 444 511 35,000  Level FlightAware ADS-B
05:43AM 37.9540 -80.5640 71° East 35,000  Level FlightAware
05:44AM 37.9800 -80.4680 71° East 35,000  Level FlightAware
05:45AM 38.0050 -80.3750 71° East 35,000  Level FlightAware
05:45AM 38.0144 -80.3439 71° East 438 504 35,000  Level Washington Center
05:46AM 38.0558 -80.1936 71° East 438 504 35,000  Level Washington Center
05:47AM 38.0947 -80.0456 72° East 438 504 35,000  Level Washington Center
05:48AM 38.1333 -79.9000 71° East 438 504 35,000 -1,205 Level Washington Center
05:54AM 38.3520 -79.0390 71° East 35,000 -1,250 Level FlightAware
05:55AM 38.3970 -78.8570 72° East 35,000 -1,586 Level FlightAware
05:56AM 38.4490 -78.6490 72° East 35,000 -1,677 Level FlightAware
05:57AM 38.4960 -78.4610 72° East 31,400 -1,787 Descending FlightAware
05:58AM 38.5170 -78.3730 73° East 29,400 -1,710 Descending FlightAware
05:59AM 38.5420 -78.2700 73° East 26,900 -1,652 Descending FlightAware
05:59AM 38.5640 -78.1800 73° East 25,200 -1,576 Descending FlightAware
06:00AM 38.5950 -78.0550 72° East 22,800 -1,527 Descending FlightAware
06:01AM 38.6160 -77.9640 74° East 21,000 -1,452 Descending FlightAware
06:01AM 38.6400 -77.8610 73° East 19,100 -1,386 Descending FlightAware
06:02AM 38.6480 -77.7490 85° East 18,300 -1,324 Descending FlightAware
06:03AM 38.6540 -77.6580 85° East 17,700 -1,338 Descending FlightAware
06:03AM 38.6630 -77.6220 72° East 17,200 -1,362 Descending FlightAware
06:04AM 38.7160 -77.5350 52° Northeast 14,900 -1,349 Descending FlightAware
06:04AM 38.7590 -77.4760 47° Northeast 13,200 -1,235 Descending FlightAware
06:05AM 38.8090 -77.3970 51° Northeast 12,000 -1,144 Descending FlightAware
06:06AM 38.8470 -77.3150 59° Northeast 12,000 -1,110 Level FlightAware
06:07AM 38.8760 -77.2530 59° Northeast 11,500 -1,200 Descending FlightAware
06:07AM 38.9190 -77.1950 46° Northeast 10,300 -1,235 Descending FlightAware
06:08AM 38.9610 -77.1490 40° Northeast 9,900 -1,200 Descending FlightAware
06:08AM 38.9860 -77.1230 39° Northeast 9,300 -1,256 Descending FlightAware
06:09AM 39.0010 -77.1060 41° Northeast 8,600 -1,244 Descending FlightAware
06:09AM 39.0310 -77.0730 41° Northeast 7,400 -1,185 Descending FlightAware
06:10AM 39.0630 -77.0390 40° Northeast 6,200 -1,083 Descending FlightAware
06:10AM 39.0860 -77.0130 41° Northeast 5,300 -964 Descending FlightAware
06:10AM 39.1090 -76.9880 40° Northeast 4,300 -866 Descending FlightAware
06:11AM 39.1370 -76.9570 41° Northeast 3,300 -729 Descending FlightAware
06:11AM 39.1610 -76.9310 40° Northeast 3,000 -576 Descending FlightAware
06:12AM 39.1630 -76.9280 49° Northeast 3,000 -573 Level FlightAware
06:12AM 39.1790 -76.9000 54° Northeast 2,700 -586 Descending FlightAware
06:12AM 39.1850 -76.8810 68° East 2,500 -584 Descending FlightAware
06:13AM 39.1830 -76.8530 95° East 2,100 -582 Descending FlightAware
06:13AM 39.1830 -76.8420 90° East 2,000 -533 Descending FlightAware
06:14AM 39.1810 -76.8130 95° East 1,900 -528 Descending FlightAware
06:14AM 39.1800 -76.7990 95° East 1,700 -632 Descending FlightAware
06:14AM 39.1790 -76.7700 93° East 1,300 -686 Descending FlightAware
06:15AM 39.1833 -76.7333 93° East 120 138 900 -600 Descending Potomac TRACON
06:17AM 39.1754 -76.6683 139° Southeast  Level Estimated
06:24AM 39.1754 -76.6683 339° North  Level Estimated
06:25AM 39.1754 -76.6683 339° North  Level Estimated
06:26AM 39.1754 -76.6683 339° North  Level Estimated
06:27AM 39.1754 -76.6683 339° North  Level Estimated